createdAt,value
2018-06-19T00:04:48.861Z,17.7
2018-06-19T00:09:49.051Z,17.6
2018-06-19T00:14:48.872Z,17.6
2018-06-19T00:19:48.824Z,17.5
2018-06-19T00:24:59.965Z,17.5
2018-06-19T00:29:59.828Z,17.6
2018-06-19T00:34:59.868Z,17.6
2018-06-19T00:39:59.715Z,17.5
2018-06-19T00:44:59.822Z,17.4
2018-06-19T00:49:59.698Z,17.4
2018-06-19T00:54:59.907Z,17.3
2018-06-19T01:00:00.382Z,17.3
2018-06-19T01:05:00.098Z,17.2
2018-06-19T01:10:12.999Z,17.1
2018-06-19T01:15:12.941Z,17
2018-06-19T01:20:12.872Z,16.9
2018-06-19T01:25:12.730Z,16.8
2018-06-19T01:30:13.023Z,16.8
2018-06-19T01:35:12.862Z,16.8
2018-06-19T01:40:13.026Z,16.8
2018-06-19T01:45:14.081Z,16.7
2018-06-19T01:50:13.807Z,16.7
2018-06-19T01:55:24.199Z,16.7
2018-06-19T02:00:24.033Z,16.6
2018-06-19T02:05:23.930Z,16.5
2018-06-19T02:10:23.924Z,16.5
2018-06-19T02:15:24.161Z,16.4
2018-06-19T02:20:24.146Z,16.4
2018-06-19T02:25:24.162Z,16.3
2018-06-19T02:30:24.167Z,16.3
2018-06-19T02:35:24.163Z,16.2
2018-06-19T02:40:35.175Z,16.1
2018-06-19T02:45:35.051Z,16
2018-06-19T02:50:35.083Z,15.9
2018-06-19T02:55:34.913Z,15.8
2018-06-19T03:00:34.921Z,15.9
2018-06-19T03:05:34.922Z,15.8
2018-06-19T03:10:35.125Z,15.7
2018-06-19T03:15:34.944Z,15.7
2018-06-19T03:20:34.896Z,15.7
2018-06-19T03:25:46.130Z,15.6
2018-06-19T03:30:46.010Z,15.7
2018-06-19T03:35:46.051Z,15.7
2018-06-19T03:40:45.861Z,15.8
2018-06-19T03:45:46.010Z,15.9
2018-06-19T03:50:45.845Z,16.1
2018-06-19T03:55:45.853Z,16.5
2018-06-19T04:00:45.860Z,16.8
2018-06-19T04:05:45.880Z,16.7
2018-06-19T04:10:56.917Z,16.8
2018-06-19T04:15:56.666Z,17.1
2018-06-19T04:20:56.659Z,17.5
2018-06-19T04:25:56.810Z,17.4
2018-06-19T04:30:56.862Z,17.4
2018-06-19T04:35:56.728Z,17.4
2018-06-19T04:40:56.732Z,17.5
2018-06-19T04:45:58.683Z,17.6
2018-06-19T04:50:58.544Z,17.7
2018-06-19T04:56:09.175Z,17.7
2018-06-19T05:01:08.892Z,17.7
2018-06-19T05:06:08.918Z,17.8
2018-06-19T05:11:08.888Z,17.9
2018-06-19T05:16:09.055Z,17.9
2018-06-19T05:21:08.902Z,17.9
2018-06-19T05:26:08.903Z,18.1
2018-06-19T05:31:08.899Z,18.1
2018-06-19T05:36:08.903Z,18.3
2018-06-19T05:41:20.167Z,18.3
2018-06-19T05:46:19.926Z,18.3
2018-06-19T05:51:19.923Z,18.4
2018-06-19T05:56:19.912Z,18.6
2018-06-19T06:06:22.164Z,18.8
2018-06-19T06:11:24.865Z,18.9
2018-06-19T06:16:24.662Z,19.1
2018-06-19T06:21:24.741Z,19.2
2018-06-19T06:26:24.777Z,19.4
2018-06-19T06:31:24.704Z,19.5
2018-06-19T06:36:24.854Z,19.7
2018-06-19T06:41:24.651Z,19.9
2018-06-19T06:46:26.658Z,19.9
2018-06-19T06:51:26.379Z,20.1
2018-06-19T06:56:36.606Z,20.3
2018-06-19T07:01:36.336Z,20.5
2018-06-19T07:06:36.527Z,20.7
2018-06-19T07:11:36.563Z,21
2018-06-19T07:16:36.590Z,21.2
2018-06-19T07:21:36.361Z,21.3
2018-06-19T07:26:36.560Z,21.6
2018-06-19T07:31:41.685Z,21.8
2018-06-19T07:36:41.362Z,21.9
2018-06-19T07:41:53.597Z,22.2
2018-06-19T07:46:53.495Z,22
2018-06-19T07:51:53.516Z,22.2
2018-06-19T07:56:53.317Z,22.1
2018-06-19T08:01:53.353Z,22.5
2018-06-19T08:06:53.531Z,22.5
2018-06-19T08:11:53.291Z,22.9
2018-06-19T08:16:53.330Z,23.1
2018-06-19T08:21:53.337Z,23.1
2018-06-19T08:27:05.383Z,23.2
2018-06-19T08:32:05.062Z,23.6
2018-06-19T08:37:05.215Z,23.7
2018-06-19T08:42:05.096Z,23.4
2018-06-19T08:47:05.120Z,23.6
2018-06-19T08:52:10.345Z,24.4
2018-06-19T08:57:10.303Z,24.5
2018-06-19T09:02:10.327Z,24.3
2018-06-19T09:07:10.333Z,24.2
2018-06-19T09:12:21.641Z,24.6
2018-06-19T09:17:21.392Z,24.9
2018-06-19T09:22:21.365Z,24.9
2018-06-19T09:27:21.513Z,25.3
2018-06-19T09:32:21.549Z,24.9
2018-06-19T09:37:21.380Z,25
2018-06-19T09:42:21.381Z,25.3
2018-06-19T09:47:21.388Z,25.4
2018-06-19T09:52:21.584Z,25.1
2018-06-19T09:57:32.814Z,24.9
2018-06-19T10:02:32.545Z,25.6
2018-06-19T10:07:32.643Z,25.8
2018-06-19T10:12:32.664Z,26.3
2018-06-19T10:17:32.710Z,26
2018-06-19T10:22:32.738Z,25.3
2018-06-19T10:27:32.556Z,25.5
2018-06-19T10:32:32.570Z,25.7
2018-06-19T10:37:32.740Z,25.4
2018-06-19T10:42:44.587Z,25
2018-06-19T10:47:44.496Z,25.4
2018-06-19T10:52:44.514Z,25.7
2018-06-19T10:57:44.318Z,25.2
2018-06-19T11:02:44.473Z,24.7
2018-06-19T11:07:44.311Z,24.5
2018-06-19T11:12:44.513Z,24.9
2018-06-19T11:17:44.330Z,25.1
2018-06-19T11:22:44.496Z,25.4
2018-06-19T11:27:56.082Z,25.5
2018-06-19T11:32:55.949Z,25.6
2018-06-19T11:37:55.810Z,25.7
2018-06-19T11:42:55.806Z,26
2018-06-19T11:47:56.251Z,26.5
2018-06-19T11:52:56.191Z,26.8
2018-06-19T11:57:56.021Z,26.5
2018-06-19T12:02:56.028Z,26.3
2018-06-19T12:07:56.182Z,25.7
2018-06-19T12:13:08.010Z,26.3
2018-06-19T12:18:08.464Z,26.3
2018-06-19T12:23:07.689Z,26.8
2018-06-19T12:28:07.902Z,26.1
2018-06-19T12:33:07.825Z,26.1
2018-06-19T12:38:07.706Z,25.8
2018-06-19T12:43:07.714Z,25.7
2018-06-19T12:48:09.615Z,25.8
2018-06-19T12:53:09.374Z,26.1
2018-06-19T12:58:21.773Z,25.9
2018-06-19T13:03:21.642Z,26.4
2018-06-19T13:08:21.689Z,26.3
2018-06-19T13:13:21.525Z,26.9
2018-06-19T13:18:21.486Z,27.5
2018-06-19T13:23:21.688Z,27.6
2018-06-19T13:33:21.651Z,26.1
2018-06-19T13:38:21.682Z,25.8
2018-06-19T13:43:21.545Z,26.1
2018-06-19T13:48:21.544Z,26.5
2018-06-19T13:53:21.824Z,26.8
2018-06-19T13:58:26.108Z,26.7
2018-06-19T14:03:25.957Z,26.7
2018-06-19T14:08:38.418Z,26.5
2018-06-19T14:13:38.170Z,26
2018-06-19T14:18:38.192Z,25.8
2018-06-19T14:23:38.174Z,25.5
2018-06-19T14:28:38.155Z,25.4
2018-06-19T14:33:38.159Z,25.4
2018-06-19T14:38:38.176Z,26.1
2018-06-19T14:43:38.674Z,26.3
2018-06-19T14:48:38.422Z,25.8
2018-06-19T14:53:50.912Z,26.2
2018-06-19T14:58:50.638Z,26.4
2018-06-19T15:03:53.375Z,26.7
2018-06-19T15:08:50.644Z,26.3
2018-06-19T15:13:50.643Z,26.2
2018-06-19T15:18:50.839Z,26.1
2018-06-19T15:23:50.872Z,26
2018-06-19T15:28:50.707Z,26.1
2018-06-19T15:33:50.929Z,26.4
2018-06-19T15:39:02.952Z,26.1
2018-06-19T15:44:02.682Z,25.6
2018-06-19T15:49:02.819Z,25.3
2018-06-19T15:54:02.638Z,25.3
2018-06-19T15:59:02.900Z,25.2
2018-06-19T16:04:02.691Z,25.2
2018-06-19T16:09:02.882Z,25.3
2018-06-19T16:14:03.336Z,25.2
2018-06-19T16:19:03.061Z,25.2
2018-06-19T16:24:15.962Z,25.3
2018-06-19T16:29:15.884Z,25.5
2018-06-19T16:34:15.669Z,25.6
2018-06-19T16:39:15.864Z,25.5
2018-06-19T16:44:15.686Z,25.3
2018-06-19T16:49:15.698Z,25.3
2018-06-19T16:54:15.757Z,25
2018-06-19T16:59:16.382Z,25
2018-06-19T17:04:16.115Z,25
2018-06-19T17:09:28.681Z,24.8
2018-06-19T17:14:28.418Z,24.7
2018-06-19T17:19:28.382Z,24.4
2018-06-19T17:24:28.381Z,24.4
2018-06-19T17:29:28.399Z,24.3
2018-06-19T17:34:28.398Z,24.2
2018-06-19T17:39:28.422Z,24.1
2018-06-19T17:44:28.631Z,24.3
2018-06-19T17:49:28.443Z,24.2
2018-06-19T17:54:40.780Z,24.2
2018-06-19T17:59:40.517Z,24.1
2018-06-19T18:04:40.451Z,24
2018-06-19T18:09:40.486Z,24.2
2018-06-19T18:14:40.524Z,24
2018-06-19T18:19:40.529Z,23.9
2018-06-19T18:24:40.514Z,23.8
2018-06-19T18:29:40.507Z,23.6
2018-06-19T18:34:40.527Z,23.3
2018-06-19T18:39:40.753Z,23.2
2018-06-19T18:44:40.673Z,23
2018-06-19T18:49:40.559Z,22.9
2018-06-19T18:54:41.299Z,22.9
2018-06-19T18:59:40.955Z,22.8
2018-06-19T19:04:53.284Z,22.8
2018-06-19T19:09:52.928Z,22.6
2018-06-19T19:14:52.956Z,22.6
2018-06-19T19:19:52.969Z,22.6
2018-06-19T19:24:52.977Z,22.5
2018-06-19T19:29:52.964Z,22.3
2018-06-19T19:34:52.976Z,22.2
2018-06-19T19:39:53.011Z,22.2
2018-06-19T19:44:54.377Z,22
2018-06-19T19:50:04.935Z,22.1
2018-06-19T19:55:04.652Z,22
2018-06-19T20:00:04.896Z,21.9
2018-06-19T20:05:04.655Z,21.9
2018-06-19T20:10:04.793Z,21.9
2018-06-19T20:15:04.665Z,21.9
2018-06-19T20:20:04.590Z,21.8
2018-06-19T20:25:04.651Z,21.8
2018-06-19T20:30:04.643Z,21.6
2018-06-19T20:35:04.765Z,21.7
2018-06-19T20:40:04.648Z,21.6
2018-06-19T20:45:04.659Z,21.6
2018-06-19T20:50:04.678Z,21.5
2018-06-19T20:55:04.667Z,21.5
2018-06-19T21:00:16.716Z,21.5
2018-06-19T21:05:16.388Z,21.4
2018-06-19T21:10:16.391Z,21.4
2018-06-19T21:15:16.366Z,21.4
2018-06-19T21:20:16.405Z,21.3
2018-06-19T21:25:17.248Z,21.3
2018-06-19T21:30:16.984Z,21.2
2018-06-19T21:35:16.998Z,21.1
2018-06-19T21:40:17.188Z,21
2018-06-19T21:45:17.163Z,21
2018-06-19T21:50:17.191Z,21
2018-06-19T21:55:17.139Z,21
2018-06-19T22:00:19.011Z,21
2018-06-19T22:05:18.744Z,21
2018-06-19T22:10:29.396Z,21
2018-06-19T22:15:29.323Z,20.9
2018-06-19T22:20:29.130Z,20.8
2018-06-19T22:25:29.283Z,20.8
2018-06-19T22:30:29.122Z,20.8
2018-06-19T22:35:29.132Z,20.8
2018-06-19T22:40:32.923Z,20.8
2018-06-19T22:50:38.584Z,20.7
2018-06-19T22:55:29.123Z,20.7
2018-06-19T23:00:29.133Z,20.6
2018-06-19T23:05:33.505Z,20.6
2018-06-19T23:10:33.688Z,20.5
2018-06-19T23:15:35.012Z,20.5
2018-06-19T23:20:34.756Z,20.4
2018-06-19T23:25:47.354Z,20.5
2018-06-19T23:30:47.250Z,20.4
2018-06-19T23:35:47.304Z,20.3
2018-06-19T23:40:47.221Z,20.4
2018-06-19T23:45:47.240Z,20.3
2018-06-19T23:50:47.084Z,20.2
2018-06-19T23:55:47.081Z,20.2
